Главная страница
METAR-TAF:

METAR-TAF

Аэропорты :

Grant County Airport

Петербург, Западная Виргиния, США

широта: 38-59N, долгота: 079-08W, высота над уровнем моря: 293 м

Текущие метеонаблюдения

Эта сводка был подготовлена 23 минут назад, в 19:35 UTC
Ветер 3 Узел от восточно-северо-восточный
Температура 27°C
Влажность 42%
Давление 1017 hPa
Видимость: 16.1 км
Отдельные облака на высоте 6500 фута

METAR: KW99 181935Z AUTO 07003KT 10SM SCT065 27/13 A3002 RMK AO2 T02680126

Время: 15:58 (19:58 UTC)


TAF: отсутствует

Метеонаблюдения и прогнозы для более 4000 аэропортов (сводки METAR и TAF).

Имеющиеся станции представлены на карте желтыми и красными точками.

Чтобы увидеть название станции, наведите на нее мышь.

Затем щелкните, чтобы увидеть метеонаблюдения и метеопрогнозы.

Управление картой: чтобы увеличить масштаб, щелкните зеленые кнопки с черным крестиком; чтобы уменьшить масштаб, щелкните зеленую кнопку с тире; для просмотра соседних карт щелкайте зеленые стрелки.


METAR-TAF: